Latest Weather Observations for Bairnsdale

IDV60801

Issued at 7:35 am EST Friday 25 April 2014 (issued every 30 minutes, with the page automatically refreshed every 10 minutes)

About weather observations | Map of weather stations | Latest weather observations for VIC | Other Formats
Station Details ID: 085279 Name: BAIRNSDALE AIRPORT Lat: -37.88 Lon: 147.57 Height: 49.4 m
Data from the previous 72 hours. | See also: Recent months at Bairnsdale
Date/Time
EST
Temp
°C
App
Temp
°C
Dew
Point
Rel
Hum
%
Delta-T
°C
Wind Press
QNH
hPa
Press
MSL
hPa
Rain
since 9 am
mm
Dir
 
Spd
km/h
Gust
km/h
Spd
kts
Gust
kts
25/07:30am 4.2 1.7 3.8 97 0.2 NW 6 7 3 4 1022.2 - 0.0
25/07:00am 2.4 -0.6 1.7 95 0.3 NW 7 9 4 5 1022.2 - 0.0
25/06:30am 3.1 -0.2 2.5 96 0.2 N 9 11 5 6 1021.8 - 0.0
25/06:00am 1.7 -1.9 0.8 94 0.3 NNW 9 9 5 5 1021.9 1021.9 0.0
25/05:30am 2.1 -1.4 1.1 93 0.4 N 9 11 5 6 1021.9 - 0.0
25/05:00am 3.7 0.8 2.7 93 0.4 N 7 9 4 5 1021.7 - 0.0
25/04:30am 3.4 0.6 2.2 92 0.5 NW 6 7 3 4 1021.9 - 0.0
25/04:00am 3.8 0.5 2.5 91 0.5 NNW 9 9 5 5 1021.6 - 0.0
25/03:30am 4.2 0.6 2.9 91 0.5 NNW 11 13 6 7 1021.6 - 0.0
25/03:00am 4.1 0.1 2.6 90 0.6 NW 13 13 7 7 1021.7 1021.7 0.0
25/02:30am 4.5 0.5 2.7 88 0.7 NW 13 15 7 8 1021.7 - 0.0
25/02:00am 5.2 0.9 3.4 88 0.7 NW 15 17 8 9 1021.9 - 0.0
25/01:30am 5.8 1.6 3.8 87 0.8 NW 15 17 8 9 1022.0 - 0.0
25/01:00am 5.6 1.4 3.6 87 0.8 WNW 15 17 8 9 1021.9 - 0.0
25/12:30am 5.5 1.2 3.3 86 0.9 WNW 15 17 8 9 1022.1 - 0.0
25/12:00am 5.5 1.2 3.5 87 0.8 WNW 15 17 8 9 1022.0 1022.0 0.0
 
Date/Time
EST
Temp
°C
App
Temp
°C
Dew
Point
Rel
Hum
%
Delta-T
°C
Wind Press
QNH
hPa
Press
MSL
hPa
Rain
since 9 am
mm
Dir
 
Spd
km/h
Gust
km/h
Spd
kts
Gust
kts
24/11:30pm 5.4 1.9 3.4 87 0.8 NW 11 15 6 8 1022.1 - 0.0
24/11:00pm 5.7 2.1 3.2 84 1.0 NW 11 15 6 8 1022.2 - 0.0
24/10:30pm 6.5 2.7 3.7 82 1.2 NW 13 17 7 9 1022.2 - 0.0
24/10:00pm 6.3 2.5 3.8 84 1.1 NW 13 17 7 9 1022.1 - 0.0
24/09:30pm 6.6 3.1 3.6 81 1.3 NW 11 13 6 7 1021.9 - 0.0
24/09:00pm 7.2 3.7 3.4 77 1.6 NW 11 13 6 7 1021.4 1021.4 0.0
24/08:30pm 9.0 6.2 3.4 68 2.4 WSW 7 11 4 6 1021.3 - 0.0
24/08:00pm 10.3 6.4 3.6 63 2.9 WSW 13 19 7 10 1020.9 - 0.0
24/07:30pm 10.7 6.9 4.0 63 3.0 WSW 13 19 7 10 1020.4 - 0.0
24/07:00pm 11.3 6.8 4.1 61 3.2 WSW 17 20 9 11 1020.0 - 0.0
24/06:30pm 11.7 7.2 4.2 60 3.4 WSW 17 24 9 13 1019.6 - 0.0
24/06:00pm 12.2 6.7 3.9 57 3.7 SW 22 28 12 15 1018.8 1018.8 0.0
24/05:30pm 13.0 7.4 3.7 53 4.2 SW 22 33 12 18 1018.2 - 0.0
24/05:00pm 14.0 7.9 2.9 47 5.0 WSW 24 33 13 18 1017.8 - 0.0
24/04:30pm 14.8 8.1 3.6 47 5.1 WSW 28 35 15 19 1017.4 - 0.0
24/04:10pm 15.2 7.7 3.4 45 5.4 WSW 32 50 17 27 1017.0 - 0.0
24/04:00pm 15.6 8.4 3.1 43 5.7 WSW 30 46 16 25 1016.9 - 0.0
24/03:40pm 16.2 9.2 3.9 44 5.7 WSW 30 48 16 26 1016.6 - 0.0
24/03:30pm 16.2 8.2 3.9 44 5.7 WSW 35 46 19 25 1016.4 - 0.0
24/03:09pm 16.5 9.8 3.9 43 5.9 WSW 28 48 15 26 1016.1 - 0.0
24/03:00pm 16.5 9.9 4.2 44 5.8 WSW 28 44 15 24 1016.0 1016.0 0.0
24/02:30pm 15.8 8.1 5.4 50 5.0 WSW 35 48 19 26 1015.5 - 0.0
24/02:20pm 15.7 8.5 5.0 49 5.1 WSW 32 50 17 27 1015.4 - 0.0
24/02:00pm 16.6 8.8 6.7 52 4.9 WSW 37 50 20 27 1015.1 - 0.0
24/01:30pm 16.4 9.8 8.6 60 4.0 WSW 33 52 18 28 1015.0 - 0.0
24/01:11pm 15.4 9.6 9.3 67 3.1 WSW 30 48 16 26 1014.8 - 0.0
24/01:00pm 15.1 10.2 9.9 71 2.7 WSW 26 35 14 19 1014.7 - 0.0
24/12:30pm 14.6 8.5 9.6 72 2.6 WSW 32 43 17 23 1014.7 - 0.0
24/12:00pm 13.8 6.6 9.0 73 2.4 WSW 37 48 20 26 1014.6 1014.6 0.0
24/11:46am 13.4 5.9 9.3 76 2.1 WSW 39 57 21 31 1014.6 - 0.0
24/11:30am 14.9 7.6 10.3 74 2.4 WSW 39 56 21 30 1014.4 - 0.0
24/11:25am 14.6 7.7 10.4 76 2.2 WSW 37 56 20 30 1014.4 - 0.0
24/11:00am 13.6 6.9 11.1 85 1.3 WSW 37 50 20 27 1014.0 - 0.0
24/10:49am 14.2 8.1 10.4 78 2.0 WSW 33 52 18 28 1013.7 - 0.0
24/10:30am 16.8 11.2 8.8 59 4.1 WSW 28 44 15 24 1013.0 - 0.0
24/10:19am 17.2 11.3 7.5 53 4.9 W 28 44 15 24 1012.7 - 0.0
24/10:00am 17.2 13.9 8.1 55 4.6 W 15 24 8 13 1012.3 - 0.0
24/09:00am 17.1 14.5 9.3 60 4.1 NNW 13 20 7 11 1011.8 1011.7 0.2
24/08:30am 14.8 12.0 8.7 67 3.1 NW 13 19 7 10 1011.6 - 0.2
24/08:00am 12.2 10.4 10.8 91 0.7 NW 11 17 6 9 1011.1 - 0.2
24/07:30am 9.6 7.0 9.5 99 0.0 NW 13 19 7 10 1010.7 - 0.2
24/07:00am 7.5 4.8 7.4 99 0.0 NW 11 15 6 8 1010.4 - 0.2
24/06:30am 7.8 5.2 7.7 99 0.0 NW 11 15 6 8 1010.5 - 0.2
24/06:00am 7.7 4.7 7.6 99 0.0 NNW 13 15 7 8 1010.4 1010.3 0.2
24/05:30am 8.6 5.8 8.5 99 0.0 WNW 13 17 7 9 1010.4 - 0.2
24/05:15am 8.3 5.4 8.2 99 0.0 WNW 13 15 7 8 1010.4 - 0.2
24/05:00am 7.9 4.9 7.8 99 0.0 NW 13 17 7 9 1010.3 - 0.2
24/04:30am 7.3 4.9 7.2 99 0.0 NW 9 13 5 7 1010.1 - 0.0
24/04:00am 8.9 6.5 8.8 99 0.0 NW 11 13 6 7 1010.2 - 0.0
24/03:34am 9.4 7.6 9.3 99 0.0 NW 9 11 5 6 1010.1 - 0.0
24/03:30am 9.6 7.8 9.5 99 0.0 NW 9 13 5 7 1010.1 - 0.0
24/03:21am 9.5 7.3 9.4 99 0.0 NW 11 13 6 7 1010.1 - 0.0
24/03:00am 8.2 6.1 8.1 99 0.0 WNW 9 11 5 6 1010.3 1010.2 0.0
24/02:59am 8.2 6.4 8.1 99 0.0 WNW 7 11 4 6 1010.3 - 0.0
24/02:30am 8.8 7.2 8.7 99 0.0 NNW 7 9 4 5 1010.6 - 0.0
24/02:00am 8.6 6.9 8.5 99 0.0 NW 7 9 4 5 1011.0 - 0.0
24/01:37am 9.6 8.2 9.5 99 0.0 NW 7 11 4 6 1011.2 - 0.0
24/01:32am 9.6 8.2 9.5 99 0.0 NW 7 11 4 6 1011.2 - 0.0
24/01:30am 9.5 8.1 9.4 99 0.0 NW 7 11 4 6 1011.3 - 0.0
24/01:10am 9.5 8.1 9.4 99 0.0 NW 7 9 4 5 1011.4 - 0.0
24/01:00am 9.6 8.8 9.5 99 0.0 NW 4 7 2 4 1011.4 - 0.0
24/12:51am 10.0 9.3 9.9 99 0.1 NNW 4 7 2 4 1011.6 - 0.0
24/12:30am 9.6 8.2 9.5 99 0.0 W 7 9 4 5 1011.6 - 0.0
24/12:27am 9.5 8.1 9.4 99 0.0 W 7 9 4 5 1011.6 - 0.0
24/12:00am 10.5 9.3 10.3 99 0.1 WNW 7 11 4 6 1011.8 1011.7 0.0
 
Date/Time
EST
Temp
°C
App
Temp
°C
Dew
Point
Rel
Hum
%
Delta-T
°C
Wind Press
QNH
hPa
Press
MSL
hPa
Rain
since 9 am
mm
Dir
 
Spd
km/h
Gust
km/h
Spd
kts
Gust
kts
23/11:30pm 9.7 8.3 9.6 99 0.0 NW 7 11 4 6 1012.1 - 0.0
23/11:00pm 11.1 9.7 10.9 99 0.1 N 9 11 5 6 1012.3 - 0.0
23/10:47pm 11.2 9.8 11.0 99 0.1 NW 9 11 5 6 1012.5 - 0.0
23/10:40pm 11.1 9.3 10.9 99 0.1 NW 11 13 6 7 1012.7 - 0.0
23/10:30pm 11.3 9.2 11.1 99 0.1 NW 13 15 7 8 1012.9 - 0.0
23/10:00pm 10.5 8.9 10.3 99 0.1 NW 9 11 5 6 1013.1 - 0.0
23/09:30pm 11.5 10.2 11.3 99 0.1 NNW 9 9 5 5 1013.3 - 0.0
23/09:00pm 10.9 9.4 10.4 97 0.3 NW 9 11 5 6 1013.5 1013.4 0.0
23/08:46pm 11.8 10.9 11.3 97 0.3 N 7 9 4 5 1013.5 - 0.0
23/08:30pm 12.5 11.8 12.0 97 0.3 N 7 7 4 4 1013.7 - 0.0
23/08:00pm 12.7 12.0 12.1 96 0.3 NE 7 7 4 4 1013.7 - 0.0
23/07:30pm 12.3 11.3 11.0 92 0.7 N 7 7 4 4 1013.8 - 0.0
23/07:00pm 13.1 12.4 11.3 89 1.0 NNE 6 7 3 4 1013.7 - 0.0
23/06:30pm 14.2 13.7 12.2 88 1.1 NNE 6 7 3 4 1013.6 - 0.0
23/06:00pm 14.6 13.9 12.1 85 1.4 NE 7 7 4 4 1013.6 1013.5 0.0
23/05:30pm 15.2 14.5 12.0 81 1.7 ENE 7 9 4 5 1013.4 - 0.0
23/05:00pm 16.0 15.4 12.4 79 2.0 E 7 9 4 5 1013.3 - 0.0
23/04:30pm 16.8 16.2 12.3 75 2.5 ESE 7 9 4 5 1013.3 - 0.0
23/04:00pm 16.9 15.9 12.2 74 2.6 SE 9 11 5 6 1013.4 - 0.0
23/03:30pm 16.9 15.2 12.4 75 2.5 SE 13 15 7 8 1013.2 - 0.0
23/03:00pm 17.2 15.1 12.5 74 2.6 SSE 15 19 8 10 1013.3 1013.2 0.0
23/02:30pm 17.6 16.0 12.7 73 2.7 ESE 13 20 7 11 1013.0 - 0.0
23/02:00pm 17.9 16.6 12.4 70 3.1 SE 11 19 6 10 1013.1 - 0.0
23/01:30pm 18.2 17.2 12.2 68 3.3 S 9 13 5 7 1013.2 - 0.0
23/01:00pm 18.1 17.7 12.3 69 3.2 S 6 9 3 5 1013.7 - 0.0
23/12:30pm 18.1 17.6 12.8 71 3.0 SE 7 9 4 5 1014.0 - 0.0
23/12:00pm 17.6 16.7 12.7 73 2.7 ENE 9 11 5 6 1014.7 1014.7 0.0
23/11:30am 17.5 17.1 13.0 75 2.5 E 7 11 4 6 1015.3 - 0.0
23/11:00am 16.0 15.1 12.7 81 1.8 ENE 9 15 5 8 1015.6 - 0.0
23/10:30am 15.4 15.1 13.2 87 1.2 NNE 7 9 4 5 1016.1 - 0.0
23/10:00am 15.4 15.5 13.8 90 0.9 N 6 9 3 5 1016.3 - 0.0
23/09:37am 14.9 14.8 13.9 94 0.6 NNW 7 9 4 5 1016.3 - 0.0
23/09:30am 14.9 14.9 14.3 96 0.3 NNW 7 9 4 5 1016.3 - 0.0
23/09:04am 14.0 14.0 13.7 98 0.2 N 6 9 3 5 1016.5 - 0.0
23/09:00am 14.0 14.1 13.8 99 0.1 NNW 6 7 3 4 1016.5 1016.5 2.4
23/08:46am 13.8 13.6 13.6 99 0.1 NNW 7 7 4 4 1016.6 - 2.4
23/08:30am 13.5 13.2 13.3 99 0.1 NW 7 9 4 5 1016.8 - 2.4
23/08:00am 13.4 12.7 13.2 99 0.1 NW 9 11 5 6 1016.6 - 2.4
23/07:30am 13.3 12.9 13.1 99 0.1 NW 7 7 4 4 1016.5 - 2.4
23/07:00am 13.3 13.5 13.1 99 0.1 WNW 4 7 2 4 1016.3 - 2.4
23/06:30am 13.3 13.9 13.1 99 0.1 WSW 2 9 1 5 1016.4 - 2.4
23/06:14am 13.3 14.2 13.0 98 0.2 CALM 0 0 0 0 1016.3 - 2.4
23/06:00am 13.3 14.2 13.0 98 0.2 CALM 0 0 0 0 1016.3 1016.3 2.4
23/05:30am 13.2 14.1 12.9 98 0.2 CALM 0 0 0 0 1016.5 - 2.4
23/05:00am 13.3 13.1 13.0 98 0.2 WSW 6 7 3 4 1016.5 - 2.4
23/04:30am 13.3 13.0 12.8 97 0.3 SW 6 7 3 4 1016.6 - 2.4
23/04:25am 13.3 13.0 12.7 96 0.3 SW 6 7 3 4 1016.5 - 2.4
23/04:00am 13.5 14.4 12.9 96 0.3 CALM 0 0 0 0 1016.6 - 2.4
23/03:50am 13.6 14.5 13.0 96 0.3 CALM 0 0 0 0 1016.5 - 2.4
23/03:30am 13.5 14.4 12.9 96 0.3 CALM 0 0 0 0 1016.6 - 2.4
23/03:00am 13.5 14.4 12.9 96 0.3 CALM 0 0 0 0 1016.6 1016.6 2.4
23/02:59am 13.6 14.5 13.0 96 0.3 CALM 0 0 0 0 1016.7 - 2.4
23/02:34am 13.7 14.7 13.2 97 0.3 CALM 0 0 0 0 1016.9 - 2.4
23/02:30am 13.7 14.7 13.2 97 0.3 CALM 0 0 0 0 1016.9 - 2.4
23/02:00am 13.6 13.4 13.1 97 0.3 WSW 6 7 3 4 1017.1 - 2.4
23/01:30am 13.6 13.4 13.0 96 0.3 W 6 7 3 4 1017.2 - 2.4
23/01:00am 13.7 13.3 13.1 96 0.3 W 7 9 4 5 1017.4 - 2.4
23/12:30am 13.7 13.3 13.1 96 0.3 WNW 7 9 4 5 1017.6 - 2.4
23/12:00am 13.6 13.2 13.0 96 0.3 NW 7 9 4 5 1017.7 1017.7 2.4
 
Date/Time
EST
Temp
°C
App
Temp
°C
Dew
Point
Rel
Hum
%
Delta-T
°C
Wind Press
QNH
hPa
Press
MSL
hPa
Rain
since 9 am
mm
Dir
 
Spd
km/h
Gust
km/h
Spd
kts
Gust
kts
22/11:30pm 13.7 13.4 13.2 97 0.3 WNW 7 9 4 5 1017.7 - 2.4
22/11:00pm 13.8 13.5 13.3 97 0.3 NW 7 11 4 6 1017.9 - 2.4
22/10:30pm 13.8 13.5 13.3 97 0.3 NW 7 9 4 5 1017.8 - 2.4
22/10:00pm 13.8 13.5 13.2 96 0.3 WNW 7 7 4 4 1017.9 - 2.2
22/09:30pm 13.9 13.8 13.3 96 0.3 SSW 6 9 3 5 1017.5 - 2.2
22/09:08pm 14.1 13.5 13.6 97 0.3 SW 9 15 5 8 1017.6 - 2.2
22/09:00pm 14.2 13.7 13.7 97 0.3 WSW 9 13 5 7 1017.6 1017.6 2.2
22/08:38pm 14.2 13.7 13.7 97 0.3 W 9 15 5 8 1017.2 - 2.2
22/08:30pm 14.2 13.7 13.7 97 0.3 W 9 13 5 7 1017.1 - 2.2
22/08:00pm 14.2 13.6 13.6 96 0.3 W 9 11 5 6 1016.9 - 2.2
22/07:30pm 14.4 13.1 13.8 96 0.3 WSW 13 20 7 11 1016.6 - 2.2
22/07:00pm 14.5 12.9 13.9 96 0.3 SW 15 17 8 9 1016.0 - 2.0
22/06:43pm 14.5 12.1 13.7 95 0.4 SW 19 24 10 13 1015.9 - 1.8
22/06:31pm 14.7 12.0 13.4 92 0.7 SW 20 24 11 13 1015.7 - 1.6
22/06:30pm 14.7 12.0 13.4 92 0.7 SW 20 28 11 15 1015.6 - 1.4
22/06:00pm 15.9 13.1 12.5 80 1.9 SW 19 24 10 13 1015.4 1015.4 0.0
22/05:30pm 16.2 13.2 12.0 76 2.3 SW 19 24 10 13 1014.8 - 0.0
22/05:00pm 17.2 14.0 11.2 68 3.2 SW 19 24 10 13 1014.2 - 0.0
22/04:30pm 17.7 14.8 11.0 65 3.6 SW 17 20 9 11 1013.8 - 0.0
22/04:00pm 18.3 15.0 10.9 62 4.0 SSW 19 22 10 12 1013.7 - 0.0
22/03:30pm 19.5 17.3 12.0 62 4.2 SSW 15 20 8 11 1013.6 - 0.0
22/03:00pm 20.9 21.1 10.7 52 5.6 CALM 0 4 0 2 1013.3 1013.2 0.0
22/02:30pm 20.2 19.1 10.6 54 5.2 N 7 11 4 6 1013.2 - 0.0
22/02:00pm 21.7 21.9 11.7 53 5.6 SE 2 7 1 4 1013.2 - 0.0
22/01:30pm 19.6 18.7 10.6 56 4.9 S 6 7 3 4 1013.5 - 0.0
22/01:00pm 19.0 16.7 10.6 58 4.5 SSW 13 17 7 9 1014.1 - 0.0
22/12:30pm 19.2 16.7 11.0 59 4.5 SW 15 19 8 10 1014.7 - 0.0
22/12:00pm 20.2 18.1 9.7 51 5.6 W 11 15 6 8 1014.9 1014.9 0.0
22/11:30am 20.8 18.8 10.3 51 5.7 W 11 13 6 7 1015.1 - 0.0
22/11:00am 20.8 18.1 8.8 46 6.3 WSW 13 22 7 12 1015.6 - 0.0
22/10:30am 19.9 16.7 8.6 48 5.9 W 15 20 8 11 1015.9 - 0.0
22/10:00am 19.7 17.2 8.1 47 6.0 W 11 17 6 9 1015.8 - 0.0
22/09:30am 19.0 16.0 7.8 48 5.7 WNW 13 17 7 9 1015.9 - 0.0
22/09:00am 18.7 14.4 6.9 46 5.9 WNW 19 28 10 15 1015.8 1015.8 0.2
22/08:30am 18.5 14.1 6.4 45 6.0 W 19 26 10 14 1015.8 - 0.2
22/08:00am 18.7 13.6 5.9 43 6.3 W 22 32 12 17 1015.5 - 0.2

Other Formats:

Comma delimited format used in spreadsheet applications
http://www.bom.gov.au/fwo/IDV60801/IDV60801.94912.axf

JavaScript Object Notation format (JSON) in row-major order
http://www.bom.gov.au/fwo/IDV60801/IDV60801.94912.json